Lumbo, Mozambique
Current Conditions -  °F | °C
As of 7:00 PM on Monday 20 Oct 2014 (Local Time) from FQNP Reporting Station
Few Clouds Few Clouds  
Wind Chill: 77°   Ceiling: Unl
Heat Index: 79°   Visibility: 6mi
Dew Point: 61°   Wind: 13mph
Humidity: 57%   Direction: 170°S
Pressure: 29.97"   Gusts: NA
Location:  15.02°S, 40.65°E
Report Text: FQNP 201700Z 17011KT 9999 FEW020 25/16 Q1015
Loading
Personal Weather Stations






























Interactive Weather Map
Tropical Storm Tracking
New forecast layout! Learn more

10-Day Weather Forecast

Advertisements
Track Severe Weather on mobile